Airfield :
LOGIN :

Register | Disclaimer

   EN    FR    IT 

 










Legend :    VFR   Marginal VFR   IFR   Intensive IFR   Very Intensive IFR
Visi :
Ceiling :
>= 8 km
>= 3000ft
5 to 8 km
1000 to 3000 ft
1500m to 5 km
500 to 1000 ft
800 to 1500m
200 to 500 ft
< 800m
< 200 ft
Symbols :   Thunderstorms  Fog  Heavy snow  Heavy precipitations  Wind > 20 kt
SIGMETs :     Misc.  Thunderstorms  Icing  Turbulence  Mountain Waves  Volcanic Ashes






- Airport Elevation : 200 ft


EBBL - Klein Brogel AB

CURRENT METAR :
  • 150703Z 21003KT 9000 -RA FEW013 SCT023 BKN050 14/13 Q1006 WHT WHT

EXPIRED METARs :
  • 150633Z 22006KT 9000 RA FEW018 BKN026 BKN060 15/13 Q1006 BLU BLU TEMPO WHT
  • 150555Z 20005KT 9999 FEW028 SCT058 BKN090 15/12 Q1006 BLU BLU
  • 150525Z 22003KT 9999 BKN100 BKN170 15/12 Q1006 BLU BLU
  • 150455Z 20004KT 9999 FEW030 BKN180 15/12 Q1006 BLU BLU
  • 150452Z 19004KT 9999 FEW030 BKN180 15/12 Q1006 BLU BLU
  • 150425Z AUTO 19004KT 9999 FEW029/// BKN150/// BKN190/// 14/12 Q1005 BLU

TAF TAF EBBL
Valid from the 15 at 07:00 until the 15 at 16:00 UTC


150541Z 1507/1516 22005KT 9999 SCT050 BKN070
TEMPO 1507/1508 6000 -RA RA
BECMG 1508/1510 FEW010 BKN015 BKN015
TEMPO 1508/1514 4000 RA FEW005 SCT006 OVC010
TEMPO 1508/1516 5000 -RA FEW005 BKN010 OVC015



MET'MAP, your aeronautical weather chart ! - Copyright ORBIFLY December 2007 - Disclaimer

ORBIFLY MET'MAP TEAM :

Programming & Development : Alexandra Zaïnal
Concept & Development : Baudouin d'Aumeries
Co-Development & Prog : Marc-Olivier Méhu
Technical & hardware support : Manuel Goepfert

Contact : metmap@orbifly.com




SOURCES & CREDITS :

   NOAA